Time;durP1;ratioP1;P1;durP2;ratioP2;P2;SDS_P1;SDS_P2;PMS_P1;PMS_P2;Temp;Humidity;BMP_temperature;BMP_pressure;BME280_temperature;BME280_humidity;BME280_pressure;Samples;Min_cycle;Max_cycle;Signal;HPM_P1;HPM_P2
2022/01/03 00:01:45;;;;;;;9.80;5.32;;;;;;;8.81;100.00;98973.34;4997242;28;20034;-79
2022/01/03 00:04:11;;;;;;;7.05;4.32;;;;;;;8.69;100.00;98943.63;5014836;28;20111;-79
2022/01/03 00:06:41;;;;;;;6.05;4.70;;;;;;;8.71;100.00;98965.16;5014959;28;20034;-79
2022/01/03 00:09:08;;;;;;;7.00;4.95;;;;;;;8.67;100.00;98965.38;5015006;28;20025;-79
2022/01/03 00:11:35;;;;;;;6.40;4.65;;;;;;;8.60;100.00;98964.03;5014760;28;20066;-79
2022/01/03 00:14:00;;;;;;;7.72;4.53;;;;;;;8.58;100.00;98965.84;5014843;28;20025;-78
2022/01/03 00:16:26;;;;;;;6.78;4.40;;;;;;;8.58;100.00;98958.91;5014486;28;20029;-79
2022/01/03 00:18:53;;;;;;;6.50;4.53;;;;;;;8.62;100.00;98952.63;5014617;28;20053;-79
2022/01/03 00:21:20;;;;;;;9.38;5.20;;;;;;;8.66;100.00;98954.16;4996964;28;20547;-79
2022/01/03 00:24:01;;;;;;;6.82;4.95;;;;;;;8.65;100.00;98955.09;4997028;28;20080;-79
2022/01/03 00:26:29;;;;;;;6.47;5.05;;;;;;;8.57;100.00;98944.25;5014385;28;20037;-79
2022/01/03 00:29:00;;;;;;;8.70;4.60;;;;;;;8.64;100.00;98957.78;5014536;28;20029;-79
2022/01/03 00:31:31;;;;;;;7.40;5.10;;;;;;;8.66;100.00;98968.91;5014788;28;20049;-79
2022/01/03 00:33:57;;;;;;;6.10;4.35;;;;;;;8.56;100.00;98939.97;4997344;28;20080;-79
2022/01/03 00:36:26;;;;;;;6.40;4.38;;;;;;;8.72;100.00;98950.41;4996589;28;20030;-79
2022/01/03 00:38:54;;;;;;;5.38;4.25;;;;;;;8.77;100.00;98964.03;5014666;28;20032;-79
2022/01/03 00:41:22;;;;;;;6.53;4.38;;;;;;;8.70;100.00;98960.88;5014129;28;20074;-79
2022/01/03 00:43:51;;;;;;;5.80;4.15;;;;;;;8.80;100.00;98974.25;4996750;28;20413;-78
2022/01/03 00:46:17;;;;;;;7.55;4.40;;;;;;;8.79;100.00;98966.53;4996728;28;20045;-79
2022/01/03 00:48:43;;;;;;;5.82;4.00;;;;;;;8.78;100.00;98957.06;4996421;28;20021;-79
2022/01/03 00:51:08;;;;;;;6.80;4.90;;;;;;;8.88;100.00;98966.06;5014190;28;20457;-79
2022/01/03 00:53:34;;;;;;;7.55;5.00;;;;;;;8.90;100.00;98967.69;5013906;28;20434;-79
2022/01/03 00:56:14;;;;;;;7.82;4.47;;;;;;;8.95;100.00;98959.66;5013901;28;20536;-79
2022/01/03 00:58:58;;;;;;;8.30;5.18;;;;;;;8.96;100.00;98959.56;5013950;28;20048;-79
2022/01/03 01:01:25;;;;;;;7.60;4.10;;;;;;;8.90;100.00;98943.47;4996374;28;20030;-79
2022/01/03 01:03:54;;;;;;;8.52;4.10;;;;;;;8.98;100.00;98951.72;5013476;28;20026;-79
2022/01/03 01:06:22;;;;;;;6.22;4.35;;;;;;;8.92;100.00;98931.22;5013565;28;20033;-79
2022/01/03 01:08:48;;;;;;;7.10;5.00;;;;;;;8.97;100.00;98937.03;4996459;28;20433;-79
2022/01/03 01:11:15;;;;;;;5.82;4.38;;;;;;;8.82;100.00;98915.28;4996302;28;20026;-79
2022/01/03 01:13:43;;;;;;;6.93;4.50;;;;;;;9.02;100.00;98942.84;5013430;28;20082;-79
2022/01/03 01:16:09;;;;;;;7.75;4.30;;;;;;;9.02;100.00;98934.19;5013692;28;20065;-79
2022/01/03 01:18:37;;;;;;;9.43;4.45;;;;;;;9.05;100.00;98934.88;5013456;28;20032;-78
2022/01/03 01:21:06;;;;;;;5.40;3.95;;;;;;;9.00;100.00;98929.91;4995805;28;20100;-79
2022/01/03 01:23:33;;;;;;;6.00;4.30;;;;;;;9.03;100.00;98923.75;4995764;28;20034;-79
2022/01/03 01:28:43;;;;;;;6.30;4.30;;;;;;;8.99;100.00;98907.47;5013468;28;20045;-79
2022/01/03 01:31:11;;;;;;;6.53;4.43;;;;;;;9.02;100.00;98914.28;5013324;28;20029;-79
2022/01/03 01:33:38;;;;;;;5.40;4.20;;;;;;;9.04;100.00;98911.59;5012989;28;20132;-79
2022/01/03 01:36:05;;;;;;;6.40;4.50;;;;;;;8.98;100.00;98895.41;5013411;28;20030;-79
2022/01/03 01:38:34;;;;;;;5.80;4.50;;;;;;;8.84;100.00;98871.91;5013469;28;20087;-79
2022/01/03 01:41:01;;;;;;;7.97;4.15;;;;;;;9.03;100.00;98889.13;5013295;28;20021;-79
2022/01/03 01:43:32;;;;;;;5.68;4.07;;;;;;;9.12;100.00;98894.69;5012957;28;20025;-79
2022/01/03 01:46:02;;;;;;;10.30;4.63;;;;;;;8.99;100.00;98872.88;5012891;28;20029;-78
2022/01/03 01:48:33;;;;;;;5.80;4.38;;;;;;;8.93;100.00;98862.78;5013307;28;20087;-79
2022/01/03 01:50:59;;;;;;;8.38;4.43;;;;;;;8.87;100.00;98876.09;4995644;28;20041;-79
2022/01/03 01:53:26;;;;;;;7.63;4.00;;;;;;;8.70;100.00;98854.44;5012807;28;20072;-79
2022/01/03 01:55:54;;;;;;;6.30;4.35;;;;;;;8.64;100.00;98864.31;5012952;28;20034;-79
2022/01/03 01:58:28;;;;;;;7.13;4.20;;;;;;;8.63;100.00;98860.03;5012788;28;20121;-79
2022/01/03 02:01:04;;;;;;;5.95;3.97;;;;;;;8.41;100.00;98840.34;4995356;28;20040;-79
2022/01/03 02:03:38;;;;;;;6.50;4.00;;;;;;;8.46;100.00;98856.53;5012751;28;20049;-79
2022/01/03 02:06:38;;;;;;;6.40;3.97;;;;;;;8.38;100.00;98856.06;5012767;28;20030;-79
2022/01/03 02:09:06;;;;;;;6.83;3.90;;;;;;;8.20;100.00;98831.88;4914025;29;20095;-78
2022/01/03 02:11:39;;;;;;;5.68;3.70;;;;;;;8.30;100.00;98852.16;4913565;29;20637;-79
2022/01/03 02:14:04;;;;;;;4.90;3.55;;;;;;;8.16;100.00;98819.13;4897438;29;20543;-79
2022/01/03 02:16:32;;;;;;;6.45;4.15;;;;;;;8.17;100.00;98831.19;4897545;29;20032;-78
2022/01/03 02:18:58;;;;;;;5.63;3.63;;;;;;;8.07;100.00;98815.25;4913887;29;20516;-79
2022/01/03 02:21:23;;;;;;;8.77;4.68;;;;;;;8.16;100.00;98832.09;4913162;29;20156;-79
2022/01/03 02:23:48;;;;;;;6.63;4.38;;;;;;;8.17;100.00;98842.38;4913805;29;20460;-78
2022/01/03 02:26:14;;;;;;;6.65;4.38;;;;;;;8.13;100.00;98838.28;4897725;29;20107;-78
2022/01/03 02:28:39;;;;;;;7.45;4.93;;;;;;;8.12;100.00;98827.97;4913498;29;20064;-78
2022/01/03 02:31:05;;;;;;;7.70;5.05;;;;;;;8.04;100.00;98817.97;4913575;29;20054;-78
2022/01/03 02:33:31;;;;;;;7.35;4.72;;;;;;;8.11;100.00;98818.53;4913311;29;20067;-78
2022/01/03 02:35:57;;;;;;;6.00;5.03;;;;;;;8.14;100.00;98824.41;4897522;29;20115;-78
2022/01/03 02:38:22;;;;;;;8.70;5.93;;;;;;;8.02;100.00;98793.88;4913231;29;20024;-78
2022/01/03 02:40:49;;;;;;;13.93;8.88;;;;;;;8.11;100.00;98795.19;4913469;29;20059;-78
2022/01/03 02:43:14;;;;;;;13.55;7.78;;;;;;;8.22;100.00;98806.69;4897614;29;20044;-78
2022/01/03 02:45:39;;;;;;;12.18;8.07;;;;;;;8.24;100.00;98804.84;4926326;28;20046;-78
2022/01/03 02:48:11;;;;;;;10.27;6.68;;;;;;;8.18;100.00;98776.66;5012196;28;20049;-78
2022/01/03 02:50:37;;;;;;;8.57;5.60;;;;;;;8.25;100.00;98790.97;5011808;28;20585;-78
2022/01/03 02:53:03;;;;;;;9.40;6.00;;;;;;;8.14;100.00;98769.09;5012043;28;20053;-78
2022/01/03 02:55:29;;;;;;;9.43;6.03;;;;;;;8.31;100.00;98792.44;4970237;28;20135;-78
2022/01/03 02:57:58;;;;;;;7.88;5.63;;;;;;;8.27;100.00;98779.69;4970637;28;20039;-78
2022/01/03 03:00:28;;;;;;;8.45;5.40;;;;;;;8.40;100.00;98791.16;4954153;28;20047;-78
2022/01/03 03:02:55;;;;;;;8.07;5.60;;;;;;;8.31;100.00;98776.03;4954562;28;20121;-78
2022/01/03 03:05:20;;;;;;;7.60;4.60;;;;;;;8.43;100.00;98804.81;4970358;28;20039;-78
2022/01/03 03:07:47;;;;;;;5.53;4.50;;;;;;;8.32;100.00;98788.91;4970638;28;20041;-78
2022/01/03 03:10:17;;;;;;;6.47;5.00;;;;;;;8.48;100.00;98813.19;4951091;29;20043;-79
2022/01/03 03:12:43;;;;;;;9.27;5.65;;;;;;;8.43;100.00;98798.78;4951015;29;20148;-78
2022/01/03 03:15:10;;;;;;;10.10;5.10;;;;;;;8.40;100.00;98791.16;4951311;29;20081;-78
2022/01/03 03:17:36;;;;;;;8.02;4.97;;;;;;;8.34;100.00;98784.47;4951007;29;20427;-78
2022/01/03 03:20:15;;;;;;;8.57;4.55;;;;;;;8.33;100.00;98781.97;4934861;29;20050;-78
2022/01/03 03:22:41;;;;;;;5.88;4.10;;;;;;;8.38;100.00;98798.16;4934961;29;20039;-78
2022/01/03 03:25:10;;;;;;;4.95;4.10;;;;;;;8.24;100.00;98773.72;4951031;28;20039;-78
2022/01/03 03:27:43;;;;;;;4.95;3.50;;;;;;;8.36;100.00;98794.78;4957123;28;20035;-78
2022/01/03 03:30:10;;;;;;;5.65;4.35;;;;;;;8.32;100.00;98786.31;4957821;28;20046;-79
2022/01/03 03:32:36;;;;;;;6.55;3.88;;;;;;;8.32;100.00;98786.31;4954457;29;20134;-78
2022/01/03 03:35:01;;;;;;;6.65;4.50;;;;;;;8.29;100.00;98773.50;4954724;29;20043;-78
2022/01/03 03:37:27;;;;;;;6.78;4.20;;;;;;;8.29;100.00;98773.50;4954523;29;20032;-78
2022/01/03 03:39:52;;;;;;;5.70;4.18;;;;;;;8.19;100.00;98752.38;4954757;29;20035;-78
2022/01/03 03:42:19;;;;;;;6.88;4.07;;;;;;;8.18;100.00;98749.88;4975159;28;20136;-78
2022/01/03 03:44:45;;;;;;;5.90;4.13;;;;;;;8.16;100.00;98739.56;4993030;28;20478;-78
2022/01/03 03:47:11;;;;;;;7.65;3.78;;;;;;;8.25;100.00;98748.63;4976921;28;20085;-78
2022/01/03 03:49:37;;;;;;;7.05;4.13;;;;;;;8.27;100.00;98739.03;4993102;28;20036;-78
2022/01/03 03:52:04;;;;;;;8.23;4.45;;;;;;;8.19;100.00;98728.19;4993179;28;20034;-78
2022/01/03 03:54:30;;;;;;;6.00;4.88;;;;;;;8.17;100.00;98719.63;4993341;28;20035;-78
2022/01/03 03:56:57;;;;;;;6.63;4.57;;;;;;;8.19;100.00;98723.00;4976953;28;20034;-78
2022/01/03 03:59:23;;;;;;;7.80;4.05;;;;;;;8.23;100.00;98724.53;4992806;28;20039;-78
2022/01/03 04:01:49;;;;;;;7.35;4.25;;;;;;;8.25;100.00;98714.91;4993099;28;20034;-78
2022/01/03 04:04:15;;;;;;;5.82;4.18;;;;;;;8.06;100.00;98690.84;4992619;28;20042;-78
2022/01/03 04:06:40;;;;;;;5.95;4.30;;;;;;;8.18;100.00;98716.16;4972978;28;20126;-78
2022/01/03 04:09:06;;;;;;;6.15;4.22;;;;;;;8.16;100.00;98705.00;4957286;28;20483;-78
2022/01/03 04:11:31;;;;;;;6.45;4.47;;;;;;;8.17;100.00;98691.94;4973080;28;20058;-78
2022/01/03 04:13:56;;;;;;;6.28;4.72;;;;;;;8.14;100.00;98673.97;4973410;28;20084;-78
2022/01/03 04:16:22;;;;;;;7.43;5.32;;;;;;;8.07;100.00;98659.63;4956793;28;20490;-78
2022/01/03 04:18:47;;;;;;;7.47;4.80;;;;;;;8.17;100.00;98667.75;4973359;28;20102;-78
2022/01/03 04:21:12;;;;;;;8.02;4.93;;;;;;;8.16;100.00;98669.53;4972857;28;20047;-78
2022/01/03 04:23:38;;;;;;;7.57;5.03;;;;;;;8.06;100.00;98655.38;4972998;28;20106;-78
2022/01/03 04:26:04;;;;;;;6.30;4.55;;;;;;;8.15;100.00;98673.03;4973193;28;20034;-78
2022/01/03 04:28:30;;;;;;;6.63;4.57;;;;;;;8.06;100.00;98668.34;4972933;28;20113;-78
2022/01/03 04:30:56;;;;;;;7.05;4.45;;;;;;;8.16;100.00;98676.47;4973071;28;20045;-78
2022/01/03 04:33:22;;;;;;;5.90;4.57;;;;;;;7.96;100.00;98643.78;4972857;28;20035;-78
2022/01/03 04:35:47;;;;;;;5.47;4.55;;;;;;;8.16;100.00;98682.50;4973045;28;20034;-78
2022/01/03 04:38:13;;;;;;;8.55;4.63;;;;;;;8.16;100.00;98689.44;5002394;28;20053;-78
2022/01/03 04:40:38;;;;;;;6.63;4.97;;;;;;;8.14;100.00;98681.75;5014325;28;20080;-78
2022/01/03 04:43:04;;;;;;;5.03;4.00;;;;;;;8.18;100.00;98680.69;5014283;28;20048;-78
2022/01/03 04:45:30;;;;;;;11.68;4.68;;;;;;;8.15;100.00;98665.25;5014193;28;20025;-78
2022/01/03 04:47:55;;;;;;;5.28;3.80;;;;;;;8.17;100.00;98668.59;4997022;28;20053;-78
2022/01/03 04:50:21;;;;;;;4.57;3.45;;;;;;;8.08;100.00;98640.56;5014023;28;20054;-78
2022/01/03 04:52:47;;;;;;;6.18;3.60;;;;;;;8.15;100.00;98648.88;5014091;28;20030;-78
2022/01/03 04:55:12;;;;;;;4.22;3.00;;;;;;;8.19;100.00;98648.63;5014054;28;20072;-78
2022/01/03 04:57:38;;;;;;;4.00;3.03;;;;;;;8.21;100.00;98654.56;4996155;28;20627;-78
2022/01/03 05:00:06;;;;;;;4.65;3.08;;;;;;;8.25;100.00;98670.78;4996249;28;20092;-78
2022/01/03 05:02:32;;;;;;;4.57;3.28;;;;;;;8.25;100.00;98675.97;5013798;28;20030;-78
2022/01/03 05:04:57;;;;;;;3.75;2.80;;;;;;;8.15;100.00;98649.69;5014001;28;20036;-78
2022/01/03 05:07:22;;;;;;;3.65;2.58;;;;;;;8.27;100.00;98666.38;5013653;28;20487;-78
2022/01/03 05:09:48;;;;;;;4.30;2.70;;;;;;;8.15;100.00;98649.69;5013885;28;20116;-78
2022/01/03 05:12:13;;;;;;;5.05;2.67;;;;;;;8.24;100.00;98661.34;5013697;28;20456;-78
2022/01/03 05:14:40;;;;;;;2.47;1.90;;;;;;;8.17;100.00;98665.16;5013402;28;20113;-78
2022/01/03 05:17:05;;;;;;;2.10;1.90;;;;;;;8.15;100.00;98672.22;4996213;28;20377;-78
2022/01/03 05:19:30;;;;;;;2.63;2.22;;;;;;;8.21;100.00;98687.44;5013844;28;20034;-78
2022/01/03 05:21:56;;;;;;;3.67;2.22;;;;;;;8.25;100.00;98694.16;5013581;28;20046;-79
2022/01/03 05:24:21;;;;;;;3.60;2.00;;;;;;;8.28;100.00;98694.00;5013161;28;20060;-79
2022/01/03 05:26:47;;;;;;;2.55;1.67;;;;;;;8.16;100.00;98673.88;5013394;28;20079;-79
2022/01/03 05:29:13;;;;;;;3.65;1.95;;;;;;;8.30;100.00;98697.34;5013388;28;20022;-79
2022/01/03 05:31:38;;;;;;;3.17;1.90;;;;;;;8.24;100.00;98682.09;5013334;28;20034;-78
2022/01/03 05:34:03;;;;;;;3.45;2.25;;;;;;;8.30;100.00;98686.13;5013524;28;20433;-78
2022/01/03 05:36:29;;;;;;;2.92;2.15;;;;;;;8.30;100.00;98678.34;5013143;28;20386;-79
2022/01/03 05:38:55;;;;;;;3.63;2.28;;;;;;;8.29;100.00;98687.88;5013297;28;20099;-79
2022/01/03 05:41:21;;;;;;;2.90;2.00;;;;;;;8.35;100.00;98697.13;5013051;28;20061;-78
2022/01/03 05:43:47;;;;;;;5.90;2.40;;;;;;;8.24;100.00;98682.09;5013394;28;20034;-79
2022/01/03 05:46:13;;;;;;;4.50;2.00;;;;;;;8.24;100.00;98675.16;4995816;28;20120;-78
2022/01/03 05:48:38;;;;;;;3.47;2.10;;;;;;;8.25;100.00;98684.59;5012860;28;20037;-78
2022/01/03 05:51:04;;;;;;;2.92;2.10;;;;;;;8.29;100.00;98684.44;5012848;28;20543;-78
2022/01/03 05:53:30;;;;;;;2.75;2.13;;;;;;;8.23;100.00;98681.25;5013038;28;20428;-78
2022/01/03 05:55:57;;;;;;;5.05;2.05;;;;;;;8.38;100.00;98707.34;5013163;28;20044;-78
2022/01/03 05:58:22;;;;;;;4.43;1.92;;;;;;;8.27;100.00;98694.09;5012580;28;20655;-78
2022/01/03 06:00:47;;;;;;;2.05;1.77;;;;;;;8.36;100.00;98710.00;5013312;28;20033;-78
2022/01/03 06:03:14;;;;;;;2.88;1.88;;;;;;;8.36;100.00;98715.19;5012886;28;20113;-79
2022/01/03 06:05:53;;;;;;;3.92;1.95;;;;;;;8.38;100.00;98700.38;5012531;28;20033;-79
2022/01/03 06:08:18;;;;;;;5.60;2.00;;;;;;;8.41;100.00;98702.00;5012798;28;20034;-79
2022/01/03 06:10:44;;;;;;;4.55;1.80;;;;;;;8.36;100.00;98702.22;5012312;28;20033;-79
2022/01/03 06:13:09;;;;;;;2.10;1.85;;;;;;;8.27;100.00;98683.72;4995213;28;20033;-79
2022/01/03 06:15:39;;;;;;;1.92;1.48;;;;;;;8.40;100.00;98695.97;5012503;28;20045;-79
2022/01/03 06:18:05;;;;;;;2.58;1.63;;;;;;;8.25;100.00;98669.03;5012554;28;20506;-79
2022/01/03 06:20:32;;;;;;;1.67;1.58;;;;;;;8.38;100.00;98684.81;4994558;28;20132;-79
2022/01/03 06:22:58;;;;;;;2.45;1.92;;;;;;;8.46;100.00;98697.41;5012692;28;20034;-79
2022/01/03 06:25:23;;;;;;;2.20;1.50;;;;;;;8.47;100.00;98693.91;5011989;28;20736;-79
2022/01/03 06:27:48;;;;;;;2.22;1.75;;;;;;;8.47;100.00;98699.94;5012655;28;20153;-79
2022/01/03 06:30:14;;;;;;;2.63;1.65;;;;;;;8.50;100.00;98697.16;5012327;28;20122;-79
2022/01/03 06:32:39;;;;;;;5.50;2.40;;;;;;;8.54;100.00;98681.41;5012398;28;20072;-79
2022/01/03 06:35:05;;;;;;;3.30;2.00;;;;;;;8.48;100.00;98685.19;5012408;28;20485;-79
2022/01/03 06:37:31;;;;;;;2.38;1.85;;;;;;;8.61;100.00;98706.97;5012038;28;20025;-79
2022/01/03 06:39:57;;;;;;;4.28;2.05;;;;;;;8.57;100.00;98696.84;4994508;28;20025;-79
2022/01/03 06:42:22;;;;;;;2.33;1.73;;;;;;;8.67;100.00;98716.19;4994472;28;20048;-79
2022/01/03 06:44:48;;;;;;;3.75;1.60;;;;;;;8.61;100.00;98703.53;5012338;28;20060;-79
2022/01/03 06:47:15;;;;;;;3.38;2.22;;;;;;;8.64;100.00;98699.03;4994731;28;20445;-79
2022/01/03 06:49:41;;;;;;;1.58;1.48;;;;;;;8.70;100.00;98711.66;5011925;28;20033;-79
2022/01/03 06:52:06;;;;;;;4.53;1.95;;;;;;;8.63;100.00;98705.13;5012069;28;20026;-79
2022/01/03 06:54:33;;;;;;;3.35;1.80;;;;;;;8.67;100.00;98716.19;4994116;28;20029;-79
2022/01/03 06:56:59;;;;;;;4.55;2.08;;;;;;;8.58;100.00;98711.47;4994577;28;20029;-79
2022/01/03 06:59:24;;;;;;;3.08;1.80;;;;;;;8.49;100.00;98716.25;5012021;28;20480;-79
2022/01/03 07:01:50;;;;;;;3.78;1.70;;;;;;;8.40;100.00;98714.13;5015250;28;20030;-78
2022/01/03 07:04:15;;;;;;;3.88;1.90;;;;;;;8.40;100.00;98715.91;5016113;28;20376;-79
2022/01/03 07:06:41;;;;;;;2.75;1.70;;;;;;;8.33;100.00;98715.34;5015890;28;20040;-79
2022/01/03 07:09:07;;;;;;;3.60;1.95;;;;;;;8.42;100.00;98730.44;5016094;28;20026;-79
2022/01/03 07:11:33;;;;;;;3.67;1.80;;;;;;;8.45;100.00;98734.66;5016082;28;20084;-79
2022/01/03 07:19:26;;;;;;;4.90;1.90;;;;;;;8.57;100.00;98734.00;5015848;28;20171;-79
2022/01/03 07:21:52;;;;;;;3.15;1.80;;;;;;;8.60;100.00;98748.59;5015787;28;20172;-79
2022/01/03 07:24:17;;;;;;;2.40;1.90;;;;;;;8.65;100.00;98734.44;4998143;28;20033;-79
2022/01/03 07:26:43;;;;;;;4.22;1.67;;;;;;;8.69;100.00;98738.56;4997996;28;20377;-79
2022/01/03 07:29:08;;;;;;;4.07;1.98;;;;;;;8.61;100.00;98730.34;4998123;28;20030;-79
2022/01/03 07:31:34;;;;;;;4.10;2.00;;;;;;;8.72;100.00;98735.81;5015728;28;20022;-79
2022/01/03 07:33:59;;;;;;;5.72;2.33;;;;;;;8.72;100.00;98738.41;5015495;28;20069;-79
2022/01/03 07:36:24;;;;;;;5.13;2.10;;;;;;;8.69;100.00;98735.97;5015510;28;20032;-78
2022/01/03 07:38:50;;;;;;;2.97;1.73;;;;;;;8.83;100.00;98742.16;4997979;28;20104;-79
2022/01/03 07:41:16;;;;;;;3.40;1.90;;;;;;;8.86;100.00;98750.63;4997919;28;20457;-79
2022/01/03 07:43:43;;;;;;;4.22;2.40;;;;;;;8.91;100.00;98758.16;4997645;28;20429;-78
2022/01/03 07:46:09;;;;;;;5.70;2.17;;;;;;;8.89;100.00;98745.28;4997609;28;20026;-79
2022/01/03 07:48:34;;;;;;;4.80;2.08;;;;;;;8.92;100.00;98750.28;4997462;28;20103;-79
2022/01/03 07:50:59;;;;;;;4.45;2.00;;;;;;;8.84;100.00;98736.03;5012639;28;20037;-79
2022/01/03 07:53:27;;;;;;;4.00;1.95;;;;;;;8.96;100.00;98750.97;4996130;28;20042;-83
2022/01/03 07:55:52;;;;;;;3.60;2.00;;;;;;;9.05;100.00;98755.66;5012737;28;20076;-79
2022/01/03 07:58:18;;;;;;;6.30;1.88;;;;;;;9.07;100.00;98750.38;5012793;28;20536;-79
2022/01/03 08:00:44;;;;;;;4.75;2.00;;;;;;;9.18;100.00;98766.19;5012445;28;20033;-79
2022/01/03 08:03:10;;;;;;;4.63;1.95;;;;;;;9.17;100.00;98759.34;5012544;28;20034;-79
2022/01/03 08:05:35;;;;;;;5.88;1.92;;;;;;;9.21;100.00;98760.84;4995845;28;20037;-79
2022/01/03 08:08:02;;;;;;;5.47;1.98;;;;;;;9.15;100.00;98717.03;4996087;28;20061;-79
2022/01/03 08:10:27;;;;;;;4.78;2.88;;;;;;;9.23;100.00;98744.25;4995816;28;20069;-79
2022/01/03 08:12:53;;;;;;;5.55;2.85;;;;;;;9.32;100.00;98744.69;4994972;28;20116;-79
2022/01/03 08:15:18;;;;;;;3.78;2.33;;;;;;;9.33;100.00;98761.94;5012529;28;20112;-79
2022/01/03 08:17:46;;;;;;;5.55;2.60;;;;;;;9.33;100.00;98762.78;4995704;28;20037;-79
2022/01/03 08:20:12;;;;;;;4.68;2.47;;;;;;;9.30;100.00;98756.91;4995795;28;20385;-79
2022/01/03 08:22:37;;;;;;;4.93;2.92;;;;;;;9.23;100.00;98764.22;4996625;28;20038;-79
2022/01/03 08:25:03;;;;;;;6.75;2.60;;;;;;;9.30;100.00;98768.13;5014481;28;20117;-79
2022/01/03 08:27:28;;;;;;;4.63;2.30;;;;;;;9.31;100.00;98766.38;5014714;28;20440;-79
2022/01/03 08:29:54;;;;;;;4.95;2.67;;;;;;;9.32;100.00;98773.25;5014810;28;20079;-79
2022/01/03 08:32:19;;;;;;;5.07;3.40;;;;;;;9.32;100.00;98800.06;5014355;28;20057;-79
2022/01/03 08:34:44;;;;;;;6.43;2.70;;;;;;;9.18;100.00;98769.63;4996714;28;20040;-79
2022/01/03 08:37:10;;;;;;;5.97;2.88;;;;;;;9.28;100.00;98787.34;5014555;28;20110;-78
2022/01/03 08:39:35;;;;;;;7.55;2.97;;;;;;;9.25;100.00;98786.56;5014143;28;20492;-78
2022/01/03 08:42:01;;;;;;;5.82;2.90;;;;;;;9.17;100.00;98778.34;5014443;28;20036;-79
2022/01/03 08:44:26;;;;;;;3.13;2.42;;;;;;;9.18;100.00;98777.44;4996455;28;20041;-79
2022/01/03 08:46:51;;;;;;;3.35;2.08;;;;;;;9.23;100.00;98774.59;4972557;28;20117;-79
2022/01/03 08:49:18;;;;;;;4.85;2.67;;;;;;;9.42;100.00;98783.03;4973046;28;20054;-79
2022/01/03 08:51:44;;;;;;;4.22;2.40;;;;;;;9.40;100.00;98791.88;4956267;28;20031;-79
2022/01/03 08:54:09;;;;;;;4.95;2.50;;;;;;;9.34;100.00;98793.03;4972772;28;20041;-79
2022/01/03 08:56:35;;;;;;;6.13;2.75;;;;;;;9.40;100.00;98784.91;4984467;28;20038;-79
2022/01/03 08:59:02;;;;;;;6.25;2.85;;;;;;;9.51;100.00;98792.09;4991943;28;20524;-79
2022/01/03 09:01:27;;;;;;;4.25;2.33;;;;;;;9.71;100.00;98825.59;4975363;28;20034;-79
2022/01/03 09:03:53;;;;;;;2.97;2.20;;;;;;;9.86;100.00;98797.03;4992028;28;20398;-79
2022/01/03 09:06:19;;;;;;;5.38;2.90;;;;;;;10.09;100.00;98816.56;4975523;28;20042;-79
2022/01/03 09:08:46;;;;;;;5.32;2.53;;;;;;;10.15;100.00;98817.00;4991765;28;20038;-79
2022/01/03 09:11:12;;;;;;;5.70;4.03;;;;;;;10.10;100.00;98813.00;4991905;28;20030;-79
2022/01/03 09:13:38;;;;;;;4.25;3.13;;;;;;;10.12;100.00;98824.19;4991840;28;20058;-79
2022/01/03 09:16:07;;;;;;;5.07;2.67;;;;;;;10.02;100.00;98805.66;4971986;28;20035;-79
2022/01/03 09:18:35;;;;;;;3.85;2.35;;;;;;;10.03;100.00;98819.50;4955685;28;20090;-79
2022/01/03 09:21:01;;;;;;;4.40;2.72;;;;;;;10.07;100.00;98827.06;4971826;28;20606;-79
2022/01/03 09:23:31;;;;;;;6.88;3.53;;;;;;;10.03;100.00;98835.09;4955506;28;20034;-79
2022/01/03 09:28:53;;;;;;;6.22;2.65;;;;;;;10.07;100.00;98845.28;4972149;28;20121;-80
2022/01/03 09:31:26;;;;;;;6.78;2.92;;;;;;;9.93;100.00;98817.41;4989998;28;20046;-79
2022/01/03 09:33:56;;;;;;;10.73;3.72;;;;;;;10.10;100.00;98852.03;4994533;28;20394;-79
2022/01/03 09:36:23;;;;;;;7.18;4.13;;;;;;;10.06;100.00;98816.72;5008951;28;20041;-79
2022/01/03 09:38:49;;;;;;;9.73;3.67;;;;;;;10.12;100.00;98827.63;4966300;28;20047;-79
2022/01/03 09:41:18;;;;;;;6.53;3.20;;;;;;;10.22;100.00;98825.31;4951337;29;20062;-79
2022/01/03 09:43:48;;;;;;;16.70;8.70;;;;;;;10.19;100.00;98836.72;4951235;29;20043;-79
2022/01/03 09:46:23;;;;;;;19.40;12.65;;;;;;;9.93;100.00;98816.59;4934723;29;20130;-79
2022/01/03 09:48:52;;;;;;;9.38;4.85;;;;;;;9.86;100.00;98820.44;4984054;28;20478;-79
2022/01/03 09:51:29;;;;;;;6.45;3.58;;;;;;;9.75;100.00;98871.31;4974321;28;20030;-80
2022/01/03 09:53:59;;;;;;;8.25;4.30;;;;;;;9.57;100.00;98848.13;4990078;28;20073;-83
2022/01/03 09:56:25;;;;;;;6.65;4.00;;;;;;;9.50;100.00;98848.44;4990216;28;20085;-83
2022/01/03 09:58:50;;;;;;;9.07;5.38;;;;;;;9.44;100.00;98840.16;4990774;28;20630;-84
2022/01/03 10:01:16;;;;;;;7.25;3.45;;;;;;;9.46;100.00;98864.28;4974424;28;20062;-85
2022/01/03 10:03:47;;;;;;;7.65;4.10;;;;;;;9.40;100.00;98851.66;4973969;28;20063;-84
2022/01/03 10:06:14;;;;;;;11.07;3.63;;;;;;;9.45;100.00;98857.41;4942534;28;20031;-83
2022/01/03 10:08:40;;;;;;;6.65;3.58;;;;;;;9.46;100.00;98852.13;4971792;28;20530;-82
2022/01/03 10:11:05;;;;;;;8.80;3.40;;;;;;;9.56;100.00;98856.81;5012625;28;20113;-81
2022/01/03 10:13:32;;;;;;;8.18;2.80;;;;;;;9.59;100.00;98864.44;5011045;28;20034;-80
2022/01/03 10:15:57;;;;;;;9.88;3.40;;;;;;;9.60;100.00;98877.34;4994673;28;20054;-79
2022/01/03 10:18:22;;;;;;;8.73;4.40;;;;;;;9.55;100.00;98861.19;4969928;28;20043;-80
2022/01/03 10:20:48;;;;;;;8.13;3.65;;;;;;;9.67;100.00;98877.88;4954157;28;20050;-79
2022/01/03 10:23:16;;;;;;;5.07;3.08;;;;;;;9.59;100.00;98857.50;4977232;28;20469;-79
2022/01/03 10:25:43;;;;;;;9.35;3.13;;;;;;;9.77;100.00;98873.81;4984645;28;20042;-79
2022/01/03 10:28:08;;;;;;;8.80;3.45;;;;;;;9.85;100.00;98884.63;4988761;28;20046;-79
2022/01/03 10:30:40;;;;;;;7.53;3.13;;;;;;;9.75;100.00;98873.91;4972441;28;20034;-79
2022/01/03 10:33:24;;;;;;;8.30;3.35;;;;;;;9.75;100.00;98873.09;4983808;28;20039;-82
2022/01/03 10:35:53;;;;;;;5.28;3.20;;;;;;;9.70;100.00;98888.94;4982378;28;20053;-80
2022/01/03 10:38:35;;;;;;;4.75;3.20;;;;;;;9.57;100.00;98879.31;4964222;28;20053;-80
2022/01/03 10:41:14;;;;;;;11.95;4.45;;;;;;;9.51;100.00;98890.88;4971846;28;20066;-81
2022/01/03 10:43:40;;;;;;;5.93;3.35;;;;;;;9.36;100.00;98902.09;4954009;28;20031;-81
2022/01/03 10:46:18;;;;;;;17.75;5.35;;;;;;;9.33;100.00;98891.88;4970272;28;20478;-82
2022/01/03 10:48:44;;;;;;;9.52;4.10;;;;;;;9.44;100.00;98905.97;4950861;29;20081;-83
2022/01/03 10:51:09;;;;;;;9.00;3.60;;;;;;;9.54;100.00;98901.09;4951001;29;20046;-82
2022/01/03 10:53:42;;;;;;;8.80;3.75;;;;;;;9.57;100.00;98889.72;4950693;29;20507;-79
2022/01/03 10:56:44;;;;;;;7.57;4.40;;;;;;;9.65;100.00;98895.31;4955417;28;20041;-79
2022/01/03 10:59:16;;;;;;;9.95;4.47;;;;;;;9.68;100.00;98900.34;4912466;29;20149;-79
2022/01/03 11:01:44;;;;;;;11.27;4.70;;;;;;;9.56;100.00;98877.63;4912456;29;20119;-79
2022/01/03 11:04:14;;;;;;;9.48;6.22;;;;;;;9.68;100.00;98888.19;4912490;29;20036;-79
2022/01/03 11:11:55;;;;;;;32.85;19.27;;;;;;;9.70;100.00;98885.50;4913118;29;20095;-80
2022/01/03 11:14:39;;;;;;;27.33;16.83;;;;;;;9.68;100.00;98887.34;4912512;29;20536;-82
2022/01/03 11:17:28;;;;;;;20.50;13.45;;;;;;;9.72;100.00;98894.88;4912933;29;20114;-81
2022/01/03 11:19:56;;;;;;;19.15;10.95;;;;;;;9.48;100.00;98839.03;4933816;29;20444;-81
2022/01/03 11:22:36;;;;;;;22.10;11.88;;;;;;;9.78;100.00;98896.34;4969082;28;20047;-78
2022/01/03 11:25:02;;;;;;;18.38;12.48;;;;;;;9.84;100.00;98872.56;4953881;28;20023;-78
2022/01/03 11:27:27;;;;;;;50.28;39.55;;;;;;;9.97;100.00;98863.16;4969886;28;20047;-78
2022/01/03 11:29:53;;;;;;;19.65;13.95;;;;;;;10.09;100.00;98866.00;4969811;28;20019;-79
2022/01/03 11:32:19;;;;;;;17.52;9.38;;;;;;;10.21;100.00;98891.31;4953940;28;20038;-78
2022/01/03 11:34:46;;;;;;;16.38;8.93;;;;;;;10.21;100.00;98884.34;4971746;28;20398;-77
2022/01/03 11:37:12;;;;;;;10.35;5.68;;;;;;;10.21;100.00;98873.94;4991852;28;20034;-78
2022/01/03 11:39:37;;;;;;;12.95;6.03;;;;;;;10.32;100.00;98878.53;4990369;28;20073;-78
2022/01/03 11:42:03;;;;;;;17.13;13.00;;;;;;;10.22;100.00;98872.16;4991568;28;20030;-79
2022/01/03 11:44:29;;;;;;;12.05;4.45;;;;;;;10.22;100.00;98880.81;4991633;28;20442;-79
2022/01/03 11:46:55;;;;;;;19.60;9.35;;;;;;;10.20;100.00;98890.47;4991680;28;20113;-80
2022/01/03 11:49:20;;;;;;;19.02;10.60;;;;;;;10.24;100.00;98863.38;4994112;28;20076;-79